sensor_id;sensor_type;location;lat;lon;timestamp;temperature;humidity
64924;HTU21D;51436;44.692;39.214;2022-12-18T00:00:55;5.85;75.41
64924;HTU21D;51436;44.692;39.214;2022-12-18T00:03:21;5.86;75.28
64924;HTU21D;51436;44.692;39.214;2022-12-18T00:05:49;5.84;75.26
64924;HTU21D;51436;44.692;39.214;2022-12-18T00:08:16;5.83;75.28
64924;HTU21D;51436;44.692;39.214;2022-12-18T00:10:43;5.81;75.21
64924;HTU21D;51436;44.692;39.214;2022-12-18T00:13:12;5.80;75.15
64924;HTU21D;51436;44.692;39.214;2022-12-18T00:15:39;5.84;75.10
64924;HTU21D;51436;44.692;39.214;2022-12-18T00:18:06;5.93;74.88
64924;HTU21D;51436;44.692;39.214;2022-12-18T00:20:36;5.94;74.76
64924;HTU21D;51436;44.692;39.214;2022-12-18T00:23:03;5.92;74.73
64924;HTU21D;51436;44.692;39.214;2022-12-18T00:25:32;5.90;74.81
64924;HTU21D;51436;44.692;39.214;2022-12-18T00:27:58;5.87;74.80
64924;HTU21D;51436;44.692;39.214;2022-12-18T00:30:24;5.87;74.70
64924;HTU21D;51436;44.692;39.214;2022-12-18T00:32:51;5.84;74.75
64924;HTU21D;51436;44.692;39.214;2022-12-18T00:35:17;5.81;74.80
64924;HTU21D;51436;44.692;39.214;2022-12-18T00:37:43;5.77;74.92
64924;HTU21D;51436;44.692;39.214;2022-12-18T00:40:11;5.75;74.87
64924;HTU21D;51436;44.692;39.214;2022-12-18T00:42:38;5.69;74.95
64924;HTU21D;51436;44.692;39.214;2022-12-18T00:45:30;5.67;75.04
64924;HTU21D;51436;44.692;39.214;2022-12-18T00:47:57;5.68;74.94
64924;HTU21D;51436;44.692;39.214;2022-12-18T00:50:24;5.69;74.85
64924;HTU21D;51436;44.692;39.214;2022-12-18T00:52:51;5.70;74.76
64924;HTU21D;51436;44.692;39.214;2022-12-18T00:55:18;5.72;74.62
64924;HTU21D;51436;44.692;39.214;2022-12-18T00:57:47;5.68;74.69
64924;HTU21D;51436;44.692;39.214;2022-12-18T01:00:16;5.65;74.73
64924;HTU21D;51436;44.692;39.214;2022-12-18T01:02:43;5.61;74.85
64924;HTU21D;51436;44.692;39.214;2022-12-18T01:05:10;5.64;74.77
64924;HTU21D;51436;44.692;39.214;2022-12-18T01:07:37;5.66;74.73
64924;HTU21D;51436;44.692;39.214;2022-12-18T01:10:05;5.65;74.70
64924;HTU21D;51436;44.692;39.214;2022-12-18T01:12:34;5.62;74.80
64924;HTU21D;51436;44.692;39.214;2022-12-18T01:15:00;5.63;74.80
64924;HTU21D;51436;44.692;39.214;2022-12-18T01:17:27;5.67;74.70
64924;HTU21D;51436;44.692;39.214;2022-12-18T01:19:53;5.67;74.55
64924;HTU21D;51436;44.692;39.214;2022-12-18T01:22:20;5.63;74.51
64924;HTU21D;51436;44.692;39.214;2022-12-18T01:24:46;5.60;74.63
64924;HTU21D;51436;44.692;39.214;2022-12-18T01:27:12;5.57;74.55
64924;HTU21D;51436;44.692;39.214;2022-12-18T01:29:39;5.54;74.60
64924;HTU21D;51436;44.692;39.214;2022-12-18T01:32:08;5.55;74.58
64924;HTU21D;51436;44.692;39.214;2022-12-18T01:34:37;5.51;74.65
64924;HTU21D;51436;44.692;39.214;2022-12-18T01:37:05;5.48;74.71
64924;HTU21D;51436;44.692;39.214;2022-12-18T01:39:32;5.48;74.73
64924;HTU21D;51436;44.692;39.214;2022-12-18T01:42:00;5.46;74.74
64924;HTU21D;51436;44.692;39.214;2022-12-18T01:44:53;5.43;74.96
64924;HTU21D;51436;44.692;39.214;2022-12-18T01:49:56;5.45;74.70
64924;HTU21D;51436;44.692;39.214;2022-12-18T01:52:24;5.43;74.53
64924;HTU21D;51436;44.692;39.214;2022-12-18T01:54:52;5.32;74.83
64924;HTU21D;51436;44.692;39.214;2022-12-18T01:57:19;5.26;74.91
64924;HTU21D;51436;44.692;39.214;2022-12-18T01:59:47;5.11;75.18
64924;HTU21D;51436;44.692;39.214;2022-12-18T02:02:17;5.10;75.27
64924;HTU21D;51436;44.692;39.214;2022-12-18T02:04:43;5.16;75.10
64924;HTU21D;51436;44.692;39.214;2022-12-18T02:07:56;5.18;74.95
64924;HTU21D;51436;44.692;39.214;2022-12-18T02:15:13;5.32;74.34
64924;HTU21D;51436;44.692;39.214;2022-12-18T02:17:58;5.30;74.39
64924;HTU21D;51436;44.692;39.214;2022-12-18T02:20:35;5.24;74.57
64924;HTU21D;51436;44.692;39.214;2022-12-18T02:23:14;5.24;74.58
64924;HTU21D;51436;44.692;39.214;2022-12-18T02:28:31;5.21;74.67
64924;HTU21D;51436;44.692;39.214;2022-12-18T02:31:08;5.20;74.67
64924;HTU21D;51436;44.692;39.214;2022-12-18T02:33:37;5.19;74.57
64924;HTU21D;51436;44.692;39.214;2022-12-18T02:36:05;5.20;74.47
64924;HTU21D;51436;44.692;39.214;2022-12-18T02:38:34;5.17;74.44
64924;HTU21D;51436;44.692;39.214;2022-12-18T02:41:07;5.11;74.60
64924;HTU21D;51436;44.692;39.214;2022-12-18T02:43:35;5.11;74.51
64924;HTU21D;51436;44.692;39.214;2022-12-18T03:00:43;4.90;74.79
64924;HTU21D;51436;44.692;39.214;2022-12-18T03:03:30;4.92;74.73
64924;HTU21D;51436;44.692;39.214;2022-12-18T03:06:19;4.92;74.86
64924;HTU21D;51436;44.692;39.214;2022-12-18T03:08:52;5.01;74.51
64924;HTU21D;51436;44.692;39.214;2022-12-18T03:11:26;5.08;74.31
64924;HTU21D;51436;44.692;39.214;2022-12-18T03:14:13;5.11;74.09
64924;HTU21D;51436;44.692;39.214;2022-12-18T03:16:42;5.06;74.09
64924;HTU21D;51436;44.692;39.214;2022-12-18T03:19:16;4.96;74.51
64924;HTU21D;51436;44.692;39.214;2022-12-18T03:21:49;4.96;74.51
64924;HTU21D;51436;44.692;39.214;2022-12-18T03:24:18;4.92;74.44
64924;HTU21D;51436;44.692;39.214;2022-12-18T03:26:52;4.94;74.45
64924;HTU21D;51436;44.692;39.214;2022-12-18T03:29:25;4.96;74.35
64924;HTU21D;51436;44.692;39.214;2022-12-18T03:31:57;5.00;74.27
64924;HTU21D;51436;44.692;39.214;2022-12-18T03:45:52;4.88;74.46
64924;HTU21D;51436;44.692;39.214;2022-12-18T03:48:36;4.83;74.52
64924;HTU21D;51436;44.692;39.214;2022-12-18T03:51:14;4.72;74.64
64924;HTU21D;51436;44.692;39.214;2022-12-18T03:53:47;4.54;75.46
64924;HTU21D;51436;44.692;39.214;2022-12-18T03:56:18;4.63;74.89
64924;HTU21D;51436;44.692;39.214;2022-12-18T03:58:48;4.64;74.84
64924;HTU21D;51436;44.692;39.214;2022-12-18T04:01:22;4.71;74.68
64924;HTU21D;51436;44.692;39.214;2022-12-18T04:03:51;4.75;74.53
64924;HTU21D;51436;44.692;39.214;2022-12-18T04:06:20;4.76;74.44
64924;HTU21D;51436;44.692;39.214;2022-12-18T04:08:47;4.77;74.38
64924;HTU21D;51436;44.692;39.214;2022-12-18T04:11:17;4.79;74.36
64924;HTU21D;51436;44.692;39.214;2022-12-18T04:13:46;4.79;74.32
64924;HTU21D;51436;44.692;39.214;2022-12-18T04:16:21;4.77;74.32
64924;HTU21D;51436;44.692;39.214;2022-12-18T04:18:53;4.79;74.27
64924;HTU21D;51436;44.692;39.214;2022-12-18T04:21:21;4.77;74.25
64924;HTU21D;51436;44.692;39.214;2022-12-18T04:23:49;4.76;74.26
64924;HTU21D;51436;44.692;39.214;2022-12-18T04:26:19;4.76;74.25
64924;HTU21D;51436;44.692;39.214;2022-12-18T04:29:06;4.72;74.29
64924;HTU21D;51436;44.692;39.214;2022-12-18T04:31:32;4.71;74.26
64924;HTU21D;51436;44.692;39.214;2022-12-18T04:33:59;4.69;74.33
64924;HTU21D;51436;44.692;39.214;2022-12-18T04:36:25;4.71;74.25
64924;HTU21D;51436;44.692;39.214;2022-12-18T04:38:53;4.73;74.22
64924;HTU21D;51436;44.692;39.214;2022-12-18T04:41:20;4.75;74.11
64924;HTU21D;51436;44.692;39.214;2022-12-18T04:43:48;4.71;74.17
64924;HTU21D;51436;44.692;39.214;2022-12-18T04:46:15;4.64;74.29
64924;HTU21D;51436;44.692;39.214;2022-12-18T04:48:41;4.58;74.33
64924;HTU21D;51436;44.692;39.214;2022-12-18T04:51:07;4.46;74.66
64924;HTU21D;51436;44.692;39.214;2022-12-18T04:53:34;4.44;74.71
64924;HTU21D;51436;44.692;39.214;2022-12-18T04:56:14;4.36;74.83
64924;HTU21D;51436;44.692;39.214;2022-12-18T04:58:43;4.37;74.91
64924;HTU21D;51436;44.692;39.214;2022-12-18T05:01:10;4.47;74.64
64924;HTU21D;51436;44.692;39.214;2022-12-18T05:03:38;4.56;74.35
64924;HTU21D;51436;44.692;39.214;2022-12-18T05:06:05;4.57;74.28
64924;HTU21D;51436;44.692;39.214;2022-12-18T05:08:32;4.62;74.17
64924;HTU21D;51436;44.692;39.214;2022-12-18T05:11:07;4.56;74.26
64924;HTU21D;51436;44.692;39.214;2022-12-18T05:13:34;4.51;74.44
64924;HTU21D;51436;44.692;39.214;2022-12-18T05:16:01;4.54;74.44
64924;HTU21D;51436;44.692;39.214;2022-12-18T05:18:28;4.58;74.27
64924;HTU21D;51436;44.692;39.214;2022-12-18T05:20:55;4.61;74.15
64924;HTU21D;51436;44.692;39.214;2022-12-18T05:23:22;4.59;74.15
64924;HTU21D;51436;44.692;39.214;2022-12-18T05:25:53;4.60;74.16
64924;HTU21D;51436;44.692;39.214;2022-12-18T05:28:20;4.58;74.27
64924;HTU21D;51436;44.692;39.214;2022-12-18T05:30:56;4.66;74.15
64924;HTU21D;51436;44.692;39.214;2022-12-18T05:33:24;4.67;73.99
64924;HTU21D;51436;44.692;39.214;2022-12-18T05:35:52;4.63;73.95
64924;HTU21D;51436;44.692;39.214;2022-12-18T05:38:20;4.50;74.36
64924;HTU21D;51436;44.692;39.214;2022-12-18T05:40:47;4.52;74.34
64924;HTU21D;51436;44.692;39.214;2022-12-18T05:43:14;4.52;74.35
64924;HTU21D;51436;44.692;39.214;2022-12-18T05:45:41;4.53;74.39
64924;HTU21D;51436;44.692;39.214;2022-12-18T05:48:08;4.56;74.38
64924;HTU21D;51436;44.692;39.214;2022-12-18T05:50:39;4.50;74.51
64924;HTU21D;51436;44.692;39.214;2022-12-18T05:53:07;4.47;74.73
64924;HTU21D;51436;44.692;39.214;2022-12-18T05:55:35;4.54;74.69
64924;HTU21D;51436;44.692;39.214;2022-12-18T05:58:02;4.66;74.53
64924;HTU21D;51436;44.692;39.214;2022-12-18T06:00:29;4.80;74.18
64924;HTU21D;51436;44.692;39.214;2022-12-18T06:02:56;4.94;73.96
64924;HTU21D;51436;44.692;39.214;2022-12-18T06:05:22;5.02;73.85
64924;HTU21D;51436;44.692;39.214;2022-12-18T06:07:48;5.07;73.86
64924;HTU21D;51436;44.692;39.214;2022-12-18T06:10:14;5.15;73.85
64924;HTU21D;51436;44.692;39.214;2022-12-18T06:12:41;5.22;73.72
64924;HTU21D;51436;44.692;39.214;2022-12-18T06:15:07;5.28;73.81
64924;HTU21D;51436;44.692;39.214;2022-12-18T06:17:34;5.36;73.64
64924;HTU21D;51436;44.692;39.214;2022-12-18T06:20:01;5.38;73.82
64924;HTU21D;51436;44.692;39.214;2022-12-18T06:22:28;5.46;73.74
64924;HTU21D;51436;44.692;39.214;2022-12-18T06:24:56;5.53;73.69
64924;HTU21D;51436;44.692;39.214;2022-12-18T06:27:22;5.57;73.63
64924;HTU21D;51436;44.692;39.214;2022-12-18T06:29:49;5.65;73.77
64924;HTU21D;51436;44.692;39.214;2022-12-18T06:32:18;5.81;73.57
64924;HTU21D;51436;44.692;39.214;2022-12-18T06:34:45;5.97;73.37
64924;HTU21D;51436;44.692;39.214;2022-12-18T06:37:11;6.08;73.29
64924;HTU21D;51436;44.692;39.214;2022-12-18T06:39:37;6.12;73.31
64924;HTU21D;51436;44.692;39.214;2022-12-18T06:42:04;6.17;73.38
64924;HTU21D;51436;44.692;39.214;2022-12-18T06:44:30;6.25;73.48
64924;HTU21D;51436;44.692;39.214;2022-12-18T06:46:57;6.36;73.49
64924;HTU21D;51436;44.692;39.214;2022-12-18T06:49:23;6.50;73.41
64924;HTU21D;51436;44.692;39.214;2022-12-18T06:51:50;6.65;73.23
64924;HTU21D;51436;44.692;39.214;2022-12-18T06:54:16;6.82;73.09
64924;HTU21D;51436;44.692;39.214;2022-12-18T06:56:45;6.93;73.03
64924;HTU21D;51436;44.692;39.214;2022-12-18T06:59:13;7.02;73.11
64924;HTU21D;51436;44.692;39.214;2022-12-18T07:01:40;7.13;73.07
64924;HTU21D;51436;44.692;39.214;2022-12-18T07:04:07;7.29;72.98
64924;HTU21D;51436;44.692;39.214;2022-12-18T07:06:33;7.45;72.84
64924;HTU21D;51436;44.692;39.214;2022-12-18T07:08:59;7.68;72.67
64924;HTU21D;51436;44.692;39.214;2022-12-18T07:11:26;7.85;72.45
64924;HTU21D;51436;44.692;39.214;2022-12-18T07:13:52;8.04;72.32
64924;HTU21D;51436;44.692;39.214;2022-12-18T07:16:21;8.21;72.29
64924;HTU21D;51436;44.692;39.214;2022-12-18T07:18:50;8.42;72.34
64924;HTU21D;51436;44.692;39.214;2022-12-18T07:21:19;8.59;72.16
64924;HTU21D;51436;44.692;39.214;2022-12-18T07:23:45;8.76;72.10
64924;HTU21D;51436;44.692;39.214;2022-12-18T07:26:15;8.96;72.03
64924;HTU21D;51436;44.692;39.214;2022-12-18T07:28:42;9.15;71.95
64924;HTU21D;51436;44.692;39.214;2022-12-18T07:31:12;9.33;71.89
64924;HTU21D;51436;44.692;39.214;2022-12-18T07:33:38;9.52;71.99
64924;HTU21D;51436;44.692;39.214;2022-12-18T07:36:06;9.72;71.65
64924;HTU21D;51436;44.692;39.214;2022-12-18T07:38:34;9.94;71.41
64924;HTU21D;51436;44.692;39.214;2022-12-18T07:41:09;10.12;71.02
64924;HTU21D;51436;44.692;39.214;2022-12-18T07:43:37;10.34;70.77
64924;HTU21D;51436;44.692;39.214;2022-12-18T07:46:04;10.53;70.41
64924;HTU21D;51436;44.692;39.214;2022-12-18T07:48:31;10.71;70.23
64924;HTU21D;51436;44.692;39.214;2022-12-18T07:50:59;10.88;70.01
64924;HTU21D;51436;44.692;39.214;2022-12-18T07:53:26;11.10;69.88
64924;HTU21D;51436;44.692;39.214;2022-12-18T07:55:59;11.28;69.44
64924;HTU21D;51436;44.692;39.214;2022-12-18T07:58:26;11.44;69.68
64924;HTU21D;51436;44.692;39.214;2022-12-18T08:00:52;11.55;69.81
64924;HTU21D;51436;44.692;39.214;2022-12-18T08:03:22;11.64;69.61
64924;HTU21D;51436;44.692;39.214;2022-12-18T08:05:48;11.75;69.42
64924;HTU21D;51436;44.692;39.214;2022-12-18T08:08:14;11.88;69.32
64924;HTU21D;51436;44.692;39.214;2022-12-18T08:10:41;12.01;68.98
64924;HTU21D;51436;44.692;39.214;2022-12-18T08:13:07;12.19;68.30
64924;HTU21D;51436;44.692;39.214;2022-12-18T08:15:33;12.37;68.05
64924;HTU21D;51436;44.692;39.214;2022-12-18T08:18:00;12.58;67.62
64924;HTU21D;51436;44.692;39.214;2022-12-18T08:20:26;12.78;67.25
64924;HTU21D;51436;44.692;39.214;2022-12-18T08:22:52;13.05;66.00
64924;HTU21D;51436;44.692;39.214;2022-12-18T08:25:20;13.34;65.38
64924;HTU21D;51436;44.692;39.214;2022-12-18T08:27:46;13.56;64.58
64924;HTU21D;51436;44.692;39.214;2022-12-18T08:30:13;13.73;64.16
64924;HTU21D;51436;44.692;39.214;2022-12-18T08:32:39;13.88;63.66
64924;HTU21D;51436;44.692;39.214;2022-12-18T08:35:06;14.04;63.44
64924;HTU21D;51436;44.692;39.214;2022-12-18T08:37:34;14.23;62.68
64924;HTU21D;51436;44.692;39.214;2022-12-18T08:40:00;14.35;62.25
64924;HTU21D;51436;44.692;39.214;2022-12-18T08:42:27;14.50;62.00
64924;HTU21D;51436;44.692;39.214;2022-12-18T08:45:12;14.59;61.70
64924;HTU21D;51436;44.692;39.214;2022-12-18T08:47:38;14.73;61.22
64924;HTU21D;51436;44.692;39.214;2022-12-18T08:50:05;14.81;61.05
64924;HTU21D;51436;44.692;39.214;2022-12-18T08:52:32;15.01;60.52
64924;HTU21D;51436;44.692;39.214;2022-12-18T08:54:58;15.12;59.93
64924;HTU21D;51436;44.692;39.214;2022-12-18T08:57:25;15.16;60.02
64924;HTU21D;51436;44.692;39.214;2022-12-18T08:59:51;15.21;59.64
64924;HTU21D;51436;44.692;39.214;2022-12-18T09:02:18;15.28;59.17
64924;HTU21D;51436;44.692;39.214;2022-12-18T09:04:46;15.36;59.22
64924;HTU21D;51436;44.692;39.214;2022-12-18T09:07:13;15.37;59.10
64924;HTU21D;51436;44.692;39.214;2022-12-18T09:09:40;15.38;59.06
64924;HTU21D;51436;44.692;39.214;2022-12-18T09:12:06;15.48;58.46
64924;HTU21D;51436;44.692;39.214;2022-12-18T09:14:33;15.58;58.41
64924;HTU21D;51436;44.692;39.214;2022-12-18T09:16:59;15.69;58.06
64924;HTU21D;51436;44.692;39.214;2022-12-18T09:19:25;15.85;57.06
64924;HTU21D;51436;44.692;39.214;2022-12-18T09:21:52;15.97;56.84
64924;HTU21D;51436;44.692;39.214;2022-12-18T09:24:18;15.97;56.81
64924;HTU21D;51436;44.692;39.214;2022-12-18T09:26:48;16.00;56.61
64924;HTU21D;51436;44.692;39.214;2022-12-18T09:29:15;15.98;56.28
64924;HTU21D;51436;44.692;39.214;2022-12-18T09:31:42;15.95;56.47
64924;HTU21D;51436;44.692;39.214;2022-12-18T09:34:08;15.95;56.27
64924;HTU21D;51436;44.692;39.214;2022-12-18T09:36:34;15.90;55.97
64924;HTU21D;51436;44.692;39.214;2022-12-18T09:39:00;15.86;55.72
64924;HTU21D;51436;44.692;39.214;2022-12-18T09:55:24;15.61;55.87
64924;HTU21D;51436;44.692;39.214;2022-12-18T09:57:57;15.65;55.43
64924;HTU21D;51436;44.692;39.214;2022-12-18T10:00:27;15.66;55.00
64924;HTU21D;51436;44.692;39.214;2022-12-18T10:02:59;15.67;55.13
64924;HTU21D;51436;44.692;39.214;2022-12-18T10:06:11;15.67;55.57
64924;HTU21D;51436;44.692;39.214;2022-12-18T10:08:46;15.67;55.48
64924;HTU21D;51436;44.692;39.214;2022-12-18T10:11:25;15.60;55.42
64924;HTU21D;51436;44.692;39.214;2022-12-18T10:16:36;15.60;55.68
64924;HTU21D;51436;44.692;39.214;2022-12-18T10:19:10;15.58;55.27
64924;HTU21D;51436;44.692;39.214;2022-12-18T10:21:49;15.62;55.51
64924;HTU21D;51436;44.692;39.214;2022-12-18T10:27:21;15.77;55.29
64924;HTU21D;51436;44.692;39.214;2022-12-18T10:29:45;15.83;55.16
64924;HTU21D;51436;44.692;39.214;2022-12-18T10:32:22;15.90;54.97
64924;HTU21D;51436;44.692;39.214;2022-12-18T10:34:52;16.00;54.55
64924;HTU21D;51436;44.692;39.214;2022-12-18T10:37:21;16.11;54.65
64924;HTU21D;51436;44.692;39.214;2022-12-18T10:40:08;16.18;54.84
64924;HTU21D;51436;44.692;39.214;2022-12-18T10:42:35;16.20;54.42
64924;HTU21D;51436;44.692;39.214;2022-12-18T10:45:14;16.22;54.62
64924;HTU21D;51436;44.692;39.214;2022-12-18T10:47:45;16.29;54.56
64924;HTU21D;51436;44.692;39.214;2022-12-18T10:50:20;16.34;54.24
64924;HTU21D;51436;44.692;39.214;2022-12-18T10:52:55;16.43;54.01
64924;HTU21D;51436;44.692;39.214;2022-12-18T10:55:35;16.39;53.88
64924;HTU21D;51436;44.692;39.214;2022-12-18T11:03:37;16.55;53.84
64924;HTU21D;51436;44.692;39.214;2022-12-18T11:06:17;16.56;53.56
64924;HTU21D;51436;44.692;39.214;2022-12-18T11:11:28;16.61;53.52
64924;HTU21D;51436;44.692;39.214;2022-12-18T11:13:58;16.58;53.46
64924;HTU21D;51436;44.692;39.214;2022-12-18T11:16:26;16.60;53.18
64924;HTU21D;51436;44.692;39.214;2022-12-18T11:18:53;16.55;53.14
64924;HTU21D;51436;44.692;39.214;2022-12-18T11:21:20;16.48;53.37
64924;HTU21D;51436;44.692;39.214;2022-12-18T11:26:13;16.37;53.59
64924;HTU21D;51436;44.692;39.214;2022-12-18T11:31:20;16.36;53.88
64924;HTU21D;51436;44.692;39.214;2022-12-18T11:34:10;16.36;54.03
64924;HTU21D;51436;44.692;39.214;2022-12-18T11:36:41;16.41;53.43
64924;HTU21D;51436;44.692;39.214;2022-12-18T11:39:30;16.41;53.67
64924;HTU21D;51436;44.692;39.214;2022-12-18T11:42:24;16.39;53.82
64924;HTU21D;51436;44.692;39.214;2022-12-18T11:44:52;16.36;53.91
64924;HTU21D;51436;44.692;39.214;2022-12-18T11:47:41;16.35;54.04
64924;HTU21D;51436;44.692;39.214;2022-12-18T11:50:20;16.29;54.12
64924;HTU21D;51436;44.692;39.214;2022-12-18T11:52:48;16.27;53.64
64924;HTU21D;51436;44.692;39.214;2022-12-18T12:00:24;16.14;54.20
64924;HTU21D;51436;44.692;39.214;2022-12-18T12:17:11;15.97;54.61
64924;HTU21D;51436;44.692;39.214;2022-12-18T12:19:49;15.88;54.90
64924;HTU21D;51436;44.692;39.214;2022-12-18T12:24:51;15.73;55.22
64924;HTU21D;51436;44.692;39.214;2022-12-18T12:30:21;15.59;55.59
64924;HTU21D;51436;44.692;39.214;2022-12-18T12:38:17;15.53;56.07
64924;HTU21D;51436;44.692;39.214;2022-12-18T12:41:03;15.47;56.14
64924;HTU21D;51436;44.692;39.214;2022-12-18T12:46:07;15.51;55.81
64924;HTU21D;51436;44.692;39.214;2022-12-18T12:51:22;15.49;56.23
64924;HTU21D;51436;44.692;39.214;2022-12-18T12:53:50;15.52;56.18
64924;HTU21D;51436;44.692;39.214;2022-12-18T12:56:19;15.53;56.27
64924;HTU21D;51436;44.692;39.214;2022-12-18T12:58:58;15.54;56.30
64924;HTU21D;51436;44.692;39.214;2022-12-18T13:01:47;15.53;56.51
64924;HTU21D;51436;44.692;39.214;2022-12-18T13:04:31;15.49;56.93
64924;HTU21D;51436;44.692;39.214;2022-12-18T13:07:14;15.40;57.32
64924;HTU21D;51436;44.692;39.214;2022-12-18T13:12:55;15.24;58.03
64924;HTU21D;51436;44.692;39.214;2022-12-18T13:18:18;15.18;58.56
64924;HTU21D;51436;44.692;39.214;2022-12-18T13:21:31;15.16;58.74
64924;HTU21D;51436;44.692;39.214;2022-12-18T13:23:35;15.12;58.97
64924;HTU21D;51436;44.692;39.214;2022-12-18T13:31:15;15.00;59.77
64924;HTU21D;51436;44.692;39.214;2022-12-18T13:34:25;14.96;59.78
64924;HTU21D;51436;44.692;39.214;2022-12-18T13:36:53;14.91;60.16
64924;HTU21D;51436;44.692;39.214;2022-12-18T13:44:58;14.72;61.62
64924;HTU21D;51436;44.692;39.214;2022-12-18T13:47:34;14.62;62.26
64924;HTU21D;51436;44.692;39.214;2022-12-18T13:50:11;14.51;62.55
64924;HTU21D;51436;44.692;39.214;2022-12-18T13:52:46;14.40;63.42
64924;HTU21D;51436;44.692;39.214;2022-12-18T13:55:18;14.34;63.53
64924;HTU21D;51436;44.692;39.214;2022-12-18T13:57:46;14.27;64.14
64924;HTU21D;51436;44.692;39.214;2022-12-18T14:00:31;14.22;63.92
64924;HTU21D;51436;44.692;39.214;2022-12-18T14:02:58;14.17;64.84
64924;HTU21D;51436;44.692;39.214;2022-12-18T14:05:30;14.14;64.79
64924;HTU21D;51436;44.692;39.214;2022-12-18T14:08:06;14.11;64.86
64924;HTU21D;51436;44.692;39.214;2022-12-18T14:10:35;14.07;65.99
64924;HTU21D;51436;44.692;39.214;2022-12-18T14:13:06;13.99;66.36
64924;HTU21D;51436;44.692;39.214;2022-12-18T14:15:39;13.92;66.65
64924;HTU21D;51436;44.692;39.214;2022-12-18T14:20:49;13.80;67.03
64924;HTU21D;51436;44.692;39.214;2022-12-18T14:23:45;13.71;67.10
64924;HTU21D;51436;44.692;39.214;2022-12-18T14:26:24;13.65;67.81
64924;HTU21D;51436;44.692;39.214;2022-12-18T14:28:53;13.58;68.62
64924;HTU21D;51436;44.692;39.214;2022-12-18T14:31:30;13.49;68.35
64924;HTU21D;51436;44.692;39.214;2022-12-18T14:33:56;13.40;69.04
64924;HTU21D;51436;44.692;39.214;2022-12-18T14:36:25;13.32;69.24
64924;HTU21D;51436;44.692;39.214;2022-12-18T14:38:55;13.17;69.49
64924;HTU21D;51436;44.692;39.214;2022-12-18T14:41:23;13.05;70.10
64924;HTU21D;51436;44.692;39.214;2022-12-18T14:43:52;12.92;70.09
64924;HTU21D;51436;44.692;39.214;2022-12-18T14:48:56;12.67;71.19
64924;HTU21D;51436;44.692;39.214;2022-12-18T14:51:29;12.56;71.19
64924;HTU21D;51436;44.692;39.214;2022-12-18T14:53:57;12.44;70.65
64924;HTU21D;51436;44.692;39.214;2022-12-18T14:56:31;12.40;71.05
64924;HTU21D;51436;44.692;39.214;2022-12-18T14:59:22;12.33;70.87
64924;HTU21D;51436;44.692;39.214;2022-12-18T15:04:39;12.13;71.84
64924;HTU21D;51436;44.692;39.214;2022-12-18T15:07:21;12.05;71.56
64924;HTU21D;51436;44.692;39.214;2022-12-18T15:10:03;11.94;71.64
64924;HTU21D;51436;44.692;39.214;2022-12-18T15:12:37;11.86;71.90
64924;HTU21D;51436;44.692;39.214;2022-12-18T15:15:43;11.82;72.30
64924;HTU21D;51436;44.692;39.214;2022-12-18T15:20:50;11.82;71.71
64924;HTU21D;51436;44.692;39.214;2022-12-18T15:26:11;11.66;72.19
64924;HTU21D;51436;44.692;39.214;2022-12-18T15:28:54;11.56;72.05
64924;HTU21D;51436;44.692;39.214;2022-12-18T15:31:30;11.46;72.60
64924;HTU21D;51436;44.692;39.214;2022-12-18T15:36:25;11.27;73.15
64924;HTU21D;51436;44.692;39.214;2022-12-18T15:38:53;11.22;72.91
64924;HTU21D;51436;44.692;39.214;2022-12-18T15:41:21;11.16;73.10
64924;HTU21D;51436;44.692;39.214;2022-12-18T15:43:49;11.08;73.26
64924;HTU21D;51436;44.692;39.214;2022-12-18T15:46:19;10.94;73.44
64924;HTU21D;51436;44.692;39.214;2022-12-18T15:48:51;10.88;73.57
64924;HTU21D;51436;44.692;39.214;2022-12-18T15:51:33;10.84;73.27
64924;HTU21D;51436;44.692;39.214;2022-12-18T15:54:03;10.77;73.53
64924;HTU21D;51436;44.692;39.214;2022-12-18T16:04:20;10.63;73.43
64924;HTU21D;51436;44.692;39.214;2022-12-18T16:06:48;10.62;73.31
64924;HTU21D;51436;44.692;39.214;2022-12-18T16:09:14;10.55;73.54
64924;HTU21D;51436;44.692;39.214;2022-12-18T16:11:42;10.54;73.54
64924;HTU21D;51436;44.692;39.214;2022-12-18T16:14:32;10.56;73.23
64924;HTU21D;51436;44.692;39.214;2022-12-18T16:17:03;10.51;73.28
64924;HTU21D;51436;44.692;39.214;2022-12-18T16:19:31;10.51;73.51
64924;HTU21D;51436;44.692;39.214;2022-12-18T16:21:59;10.50;73.32
64924;HTU21D;51436;44.692;39.214;2022-12-18T16:24:30;10.41;73.38
64924;HTU21D;51436;44.692;39.214;2022-12-18T16:26:59;10.35;73.47
64924;HTU21D;51436;44.692;39.214;2022-12-18T16:29:26;10.36;73.49
64924;HTU21D;51436;44.692;39.214;2022-12-18T16:31:58;10.38;73.32
64924;HTU21D;51436;44.692;39.214;2022-12-18T16:34:29;10.42;73.14
64924;HTU21D;51436;44.692;39.214;2022-12-18T16:36:57;10.37;73.28
64924;HTU21D;51436;44.692;39.214;2022-12-18T16:39:25;10.31;73.28
64924;HTU21D;51436;44.692;39.214;2022-12-18T16:41:52;10.23;73.40
64924;HTU21D;51436;44.692;39.214;2022-12-18T16:44:18;10.10;73.61
64924;HTU21D;51436;44.692;39.214;2022-12-18T16:46:45;10.00;73.83
64924;HTU21D;51436;44.692;39.214;2022-12-18T16:49:13;9.85;74.12
64924;HTU21D;51436;44.692;39.214;2022-12-18T16:51:40;9.70;74.38
64924;HTU21D;51436;44.692;39.214;2022-12-18T16:54:07;9.66;74.47
64924;HTU21D;51436;44.692;39.214;2022-12-18T16:56:33;9.63;74.45
64924;HTU21D;51436;44.692;39.214;2022-12-18T16:59:01;9.67;74.25
64924;HTU21D;51436;44.692;39.214;2022-12-18T17:01:29;9.70;73.99
64924;HTU21D;51436;44.692;39.214;2022-12-18T17:04:06;9.66;73.99
64924;HTU21D;51436;44.692;39.214;2022-12-18T17:06:35;9.60;74.18
64924;HTU21D;51436;44.692;39.214;2022-12-18T17:09:09;9.59;73.99
64924;HTU21D;51436;44.692;39.214;2022-12-18T17:11:36;9.52;74.24
64924;HTU21D;51436;44.692;39.214;2022-12-18T17:14:07;9.47;74.25
64924;HTU21D;51436;44.692;39.214;2022-12-18T17:16:34;9.42;74.41
64924;HTU21D;51436;44.692;39.214;2022-12-18T17:19:00;9.35;74.60
64924;HTU21D;51436;44.692;39.214;2022-12-18T17:21:27;9.35;74.64
64924;HTU21D;51436;44.692;39.214;2022-12-18T17:23:53;9.34;74.64
64924;HTU21D;51436;44.692;39.214;2022-12-18T17:26:20;9.31;74.68
64924;HTU21D;51436;44.692;39.214;2022-12-18T17:28:46;9.31;74.64
64924;HTU21D;51436;44.692;39.214;2022-12-18T17:31:20;9.29;74.54
64924;HTU21D;51436;44.692;39.214;2022-12-18T17:33:48;9.35;74.60
64924;HTU21D;51436;44.692;39.214;2022-12-18T17:36:14;9.37;74.42
64924;HTU21D;51436;44.692;39.214;2022-12-18T17:38:42;9.34;74.45
64924;HTU21D;51436;44.692;39.214;2022-12-18T17:41:10;9.34;74.35
64924;HTU21D;51436;44.692;39.214;2022-12-18T17:43:37;9.24;74.56
64924;HTU21D;51436;44.692;39.214;2022-12-18T17:46:13;9.14;74.84
64924;HTU21D;51436;44.692;39.214;2022-12-18T17:48:40;9.10;74.86
64924;HTU21D;51436;44.692;39.214;2022-12-18T17:51:09;9.09;74.76
64924;HTU21D;51436;44.692;39.214;2022-12-18T17:53:37;9.04;75.01
64924;HTU21D;51436;44.692;39.214;2022-12-18T17:56:06;9.03;74.98